createdAt,value
2022-08-22T00:02:29.017Z,3.58
2022-08-22T00:02:47.158Z,2.92
2022-08-22T00:03:00.571Z,8.75
2022-08-22T00:05:59.868Z,3.45
2022-08-22T00:09:52.399Z,3.60
2022-08-22T00:13:25.566Z,3.33
2022-08-22T00:17:20.966Z,4.05
2022-08-22T00:20:49.670Z,3.35
2022-08-22T00:24:47.876Z,7.72
2022-08-22T00:28:20.073Z,3.67
2022-08-22T00:31:50.804Z,3.15
2022-08-22T00:35:24.349Z,4.65
2022-08-22T00:38:54.814Z,5.35
2022-08-22T00:42:52.165Z,3.67
2022-08-22T00:46:34.584Z,3.00
2022-08-22T00:50:15.017Z,3.40
2022-08-22T00:53:47.829Z,5.35
2022-08-22T00:57:27.813Z,7.03
2022-08-22T01:01:01.790Z,5.00
2022-08-22T01:04:35.407Z,3.10
2022-08-22T01:08:20.861Z,3.95
2022-08-22T01:11:54.832Z,3.50
2022-08-22T01:15:23.287Z,4.95
2022-08-22T01:19:17.168Z,2.70
2022-08-22T01:23:18.779Z,5.53
2022-08-22T01:26:52.405Z,5.90
2022-08-22T01:30:39.132Z,7.50
2022-08-22T01:34:30.034Z,3.88
2022-08-22T01:37:54.356Z,4.43
2022-08-22T01:41:51.217Z,3.78
2022-08-22T01:45:45.940Z,4.22
2022-08-22T01:49:35.430Z,4.75
2022-08-22T01:53:08.309Z,3.78
2022-08-22T01:56:45.809Z,5.63
2022-08-22T02:00:17.142Z,2.97
2022-08-22T02:03:55.517Z,4.53
2022-08-22T02:07:32.237Z,3.03
2022-08-22T02:11:07.826Z,3.70
2022-08-22T02:14:32.861Z,3.85
2022-08-22T02:18:06.809Z,5.35
2022-08-22T02:21:49.968Z,5.13
2022-08-22T02:25:19.805Z,2.85
2022-08-22T02:29:12.804Z,3.08
2022-08-22T02:32:42.731Z,6.18
2022-08-22T02:36:25.101Z,3.80
2022-08-22T02:40:02.227Z,6.78
2022-08-22T02:43:37.910Z,2.65
2022-08-22T02:47:15.326Z,4.32
2022-08-22T02:50:47.730Z,3.10
2022-08-22T02:54:18.754Z,4.25
2022-08-22T02:58:13.909Z,4.57
2022-08-22T03:01:48.901Z,3.03
2022-08-22T03:05:50.507Z,4.30
2022-08-22T03:09:15.102Z,3.03
2022-08-22T03:12:39.829Z,2.60
2022-08-22T03:16:11.011Z,3.40
2022-08-22T03:19:44.337Z,2.72
2022-08-22T03:23:15.931Z,3.03
2022-08-22T03:26:43.202Z,4.57
2022-08-22T03:30:33.774Z,7.93
2022-08-22T03:34:24.678Z,3.58
2022-08-22T03:37:46.359Z,5.78
2022-08-22T03:41:17.693Z,5.53
2022-08-22T03:44:45.203Z,6.07
2022-08-22T03:48:31.807Z,4.45
2022-08-22T03:52:20.918Z,3.85
2022-08-22T03:55:47.697Z,4.13
2022-08-22T03:59:42.473Z,4.07
2022-08-22T04:03:42.254Z,3.45
2022-08-22T04:10:42.468Z,6.68
2022-08-22T04:14:16.141Z,5.60
2022-08-22T04:17:55.555Z,4.50
2022-08-22T04:21:44.151Z,4.53
2022-08-22T04:25:11.306Z,3.50
2022-08-22T04:28:54.051Z,7.33
2022-08-22T04:32:43.614Z,3.20
2022-08-22T04:36:31.058Z,4.93
2022-08-22T04:40:03.115Z,8.60
2022-08-22T04:43:33.245Z,4.03
2022-08-22T04:47:02.945Z,3.60
2022-08-22T04:50:48.049Z,6.88
2022-08-22T04:54:31.080Z,7.53
2022-08-22T04:58:30.499Z,6.25
2022-08-22T05:02:06.201Z,4.25
2022-08-22T05:17:02.551Z,4.47
2022-08-22T05:20:28.435Z,6.97
2022-08-22T05:24:01.565Z,3.97
2022-08-22T05:27:35.452Z,5.90
2022-08-22T05:31:00.902Z,5.95
2022-08-22T05:34:26.455Z,4.38
2022-08-22T05:37:53.926Z,6.47
2022-08-22T05:41:26.457Z,3.05
2022-08-22T05:44:48.554Z,3.30
2022-08-22T05:48:30.191Z,6.10
2022-08-22T05:52:28.146Z,4.10
2022-08-22T05:56:03.774Z,9.20
2022-08-22T05:59:29.795Z,4.43
2022-08-22T06:02:55.695Z,5.85
2022-08-22T06:06:21.417Z,8.07
2022-08-22T06:09:45.983Z,5.63
2022-08-22T06:13:14.186Z,5.05
2022-08-22T06:16:56.305Z,8.73
2022-08-22T06:20:40.341Z,4.30
2022-08-22T06:24:05.340Z,5.18
2022-08-22T06:27:34.121Z,6.60
2022-08-22T06:30:57.440Z,8.02
2022-08-22T06:34:30.988Z,11.02
2022-08-22T06:37:59.787Z,4.75
2022-08-22T06:41:31.248Z,5.75
2022-08-22T06:45:22.250Z,4.90
2022-08-22T06:48:45.533Z,4.53
2022-08-22T06:52:12.843Z,6.88
2022-08-22T06:55:40.684Z,4.93
2022-08-22T06:59:07.601Z,8.65
2022-08-22T07:02:42.787Z,9.10
2022-08-22T07:06:04.781Z,10.70
2022-08-22T07:09:34.702Z,6.43
2022-08-22T07:12:56.963Z,9.98
2022-08-22T07:16:32.003Z,9.50
2022-08-22T07:20:24.666Z,9.50
2022-08-22T07:23:48.208Z,10.57
2022-08-22T07:27:50.860Z,12.80
2022-08-22T07:31:45.590Z,11.25
2022-08-22T07:35:19.618Z,9.38
2022-08-22T07:38:47.728Z,11.30
2022-08-22T07:42:17.561Z,5.85
2022-08-22T07:45:57.225Z,6.85
2022-08-22T07:49:30.671Z,8.43
2022-08-22T07:52:57.273Z,6.70
2022-08-22T07:56:28.468Z,7.25
2022-08-22T07:59:59.867Z,6.85
2022-08-22T08:03:24.049Z,9.32
2022-08-22T08:06:51.005Z,7.45
2022-08-22T08:10:18.707Z,5.05
2022-08-22T08:17:17.489Z,6.93
2022-08-22T08:20:39.494Z,8.18
2022-08-22T08:24:02.173Z,6.35
2022-08-22T08:27:50.114Z,5.82
2022-08-22T08:31:27.083Z,7.43
2022-08-22T08:34:49.463Z,8.77
2022-08-22T08:38:24.185Z,6.47
2022-08-22T08:41:51.953Z,9.48
2022-08-22T08:45:53.463Z,8.38
2022-08-22T08:49:45.502Z,7.40
2022-08-22T08:53:35.433Z,11.23
2022-08-22T08:57:21.502Z,9.50
2022-08-22T09:01:19.529Z,15.07
2022-08-22T09:05:07.170Z,7.93
2022-08-22T09:08:53.847Z,8.88
2022-08-22T09:16:31.877Z,8.35
2022-08-22T09:20:17.918Z,6.70
2022-08-22T09:23:53.336Z,8.00
2022-08-22T09:27:30.267Z,9.85
2022-08-22T09:31:21.155Z,7.75
2022-08-22T09:35:07.416Z,7.72
2022-08-22T09:38:32.384Z,17.20
2022-08-22T09:42:08.144Z,12.83
2022-08-22T09:45:47.131Z,6.03
2022-08-22T09:49:54.297Z,9.68
2022-08-22T09:53:36.387Z,9.02
2022-08-22T09:57:19.937Z,7.25
2022-08-22T10:01:10.608Z,6.07
2022-08-22T10:04:42.486Z,6.80
2022-08-22T10:08:29.450Z,7.47
2022-08-22T10:12:12.878Z,7.00
2022-08-22T10:15:56.759Z,7.03
2022-08-22T10:19:28.643Z,5.30
2022-08-22T10:23:24.186Z,9.50
2022-08-22T10:26:53.859Z,7.18
2022-08-22T10:30:25.717Z,6.93
2022-08-22T10:34:09.078Z,7.90
2022-08-22T10:37:40.622Z,5.13
2022-08-22T10:41:23.099Z,7.22
2022-08-22T10:45:10.324Z,6.78
2022-08-22T10:48:52.046Z,6.10
2022-08-22T10:53:09.634Z,8.25
2022-08-22T10:56:48.658Z,6.65
2022-08-22T11:00:46.379Z,6.82
2022-08-22T11:04:38.604Z,7.68
2022-08-22T11:08:20.758Z,9.93
2022-08-22T11:11:52.004Z,6.93
2022-08-22T11:15:26.226Z,6.78
2022-08-22T11:19:22.789Z,7.55
2022-08-22T11:23:48.255Z,6.97
2022-08-22T11:27:25.384Z,5.88
2022-08-22T11:31:07.299Z,7.88
2022-08-22T11:34:53.918Z,7.05
2022-08-22T11:38:39.844Z,6.00
2022-08-22T11:42:21.985Z,7.60
2022-08-22T11:45:47.591Z,7.38
2022-08-22T11:49:32.615Z,5.97
2022-08-22T11:53:22.644Z,7.03
2022-08-22T11:57:03.523Z,6.22
2022-08-22T12:00:32.710Z,10.70
2022-08-22T12:04:09.871Z,9.88
2022-08-22T12:07:37.957Z,8.10
2022-08-22T12:11:21.119Z,9.18
2022-08-22T12:14:51.672Z,9.25
2022-08-22T12:18:41.915Z,7.25
2022-08-22T12:22:06.360Z,9.98
2022-08-22T12:25:50.496Z,7.20
2022-08-22T12:29:34.118Z,9.13
2022-08-22T12:33:34.896Z,8.55
2022-08-22T12:37:23.307Z,7.75
2022-08-22T12:41:09.438Z,6.80
2022-08-22T12:44:39.017Z,7.90
2022-08-22T12:48:21.896Z,7.65
2022-08-22T12:52:13.398Z,6.90
2022-08-22T12:56:11.348Z,5.80
2022-08-22T12:59:43.261Z,6.65
2022-08-22T13:03:11.425Z,8.20
2022-08-22T13:06:36.032Z,8.05
2022-08-22T13:10:32.144Z,6.88
2022-08-22T13:14:03.588Z,9.30
2022-08-22T13:17:25.933Z,20.80
2022-08-22T13:20:51.740Z,15.90
2022-08-22T13:24:38.422Z,11.98
2022-08-22T13:28:04.155Z,12.55
2022-08-22T13:31:28.838Z,13.00
2022-08-22T13:34:55.753Z,16.95
2022-08-22T13:38:46.845Z,15.47
2022-08-22T13:42:28.874Z,19.30
2022-08-22T13:46:03.588Z,16.25
2022-08-22T13:50:37.552Z,16.83
2022-08-22T13:54:12.511Z,20.95
2022-08-22T13:57:52.152Z,17.98
2022-08-22T14:01:50.653Z,15.63
2022-08-22T14:05:22.164Z,14.40
2022-08-22T14:08:47.358Z,14.90
2022-08-22T14:12:23.214Z,14.20
2022-08-22T14:15:46.309Z,17.65
2022-08-22T14:19:31.945Z,19.88
2022-08-22T14:23:08.718Z,17.08
2022-08-22T14:26:37.338Z,13.15
2022-08-22T14:30:17.194Z,14.20
2022-08-22T14:34:14.238Z,16.10
2022-08-22T14:37:41.807Z,15.20
2022-08-22T14:41:28.603Z,13.93
2022-08-22T14:45:36.910Z,14.52
2022-08-22T14:49:11.116Z,17.17
2022-08-22T14:52:48.577Z,12.65
2022-08-22T14:56:15.332Z,11.68
2022-08-22T14:59:51.825Z,12.00
2022-08-22T15:03:32.256Z,12.88
2022-08-22T15:06:58.975Z,10.25
2022-08-22T15:10:31.546Z,11.15
2022-08-22T15:14:02.395Z,9.48
2022-08-22T15:17:50.892Z,9.32
2022-08-22T15:25:14.758Z,3.95
2022-08-22T15:28:52.260Z,5.90
2022-08-22T15:32:20.925Z,6.43
2022-08-22T15:35:44.203Z,6.00
2022-08-22T15:39:39.152Z,5.13
2022-08-22T15:43:38.007Z,9.32
2022-08-22T15:47:25.491Z,3.78
2022-08-22T15:51:03.389Z,4.50
2022-08-22T15:54:51.436Z,3.53
2022-08-22T15:58:25.369Z,4.25
2022-08-22T16:01:54.301Z,2.78
2022-08-22T16:05:15.957Z,3.30
2022-08-22T16:08:51.606Z,2.72
2022-08-22T16:12:47.710Z,2.75
2022-08-22T16:16:13.965Z,3.92
2022-08-22T16:19:36.580Z,4.22
2022-08-22T16:23:00.339Z,3.90
2022-08-22T16:26:24.925Z,3.78
2022-08-22T16:29:48.791Z,3.30
2022-08-22T16:33:18.321Z,2.38
2022-08-22T16:37:05.944Z,2.63
2022-08-22T16:40:30.276Z,2.63
2022-08-22T16:44:29.366Z,2.45
2022-08-22T16:47:58.288Z,4.50
2022-08-22T16:51:22.656Z,2.28
2022-08-22T16:54:49.167Z,1.88
2022-08-22T16:58:56.590Z,2.10
2022-08-22T17:02:24.712Z,3.38
2022-08-22T17:06:01.626Z,2.63
2022-08-22T17:09:32.288Z,2.83
2022-08-22T17:13:28.731Z,3.33
2022-08-22T17:17:03.543Z,2.35
2022-08-22T17:20:45.333Z,2.65
2022-08-22T17:24:54.097Z,2.53
2022-08-22T17:28:37.188Z,2.85
2022-08-22T17:31:58.905Z,2.10
2022-08-22T17:35:45.481Z,2.65
2022-08-22T17:39:10.769Z,5.28
2022-08-22T17:42:44.866Z,3.35
2022-08-22T17:46:13.430Z,4.60
2022-08-22T17:49:41.326Z,9.38
2022-08-22T17:56:47.375Z,10.23
2022-08-22T18:00:35.092Z,6.68
2022-08-22T18:04:01.182Z,2.40
2022-08-22T18:07:25.518Z,3.67
2022-08-22T18:11:03.050Z,2.50
2022-08-22T18:14:57.383Z,5.15
2022-08-22T18:18:29.953Z,3.10
2022-08-22T18:21:58.304Z,3.28
2022-08-22T18:25:19.828Z,3.75
2022-08-22T18:28:52.681Z,3.28
2022-08-22T18:32:14.291Z,2.60
2022-08-22T18:35:41.950Z,9.98
2022-08-22T18:39:16.556Z,4.13
2022-08-22T18:42:50.639Z,3.53
2022-08-22T18:46:36.376Z,2.97
2022-08-22T18:49:59.827Z,3.70
2022-08-22T18:53:36.469Z,4.25
2022-08-22T18:57:05.621Z,3.78
2022-08-22T19:00:50.266Z,3.33
2022-08-22T19:04:48.979Z,3.70
2022-08-22T19:08:37.037Z,3.60
2022-08-22T19:12:36.386Z,5.82
2022-08-22T19:16:09.870Z,4.88
2022-08-22T19:20:04.322Z,6.05
2022-08-22T19:23:40.492Z,8.75
2022-08-22T19:27:10.892Z,3.50
2022-08-22T19:31:01.640Z,24.45
2022-08-22T19:34:28.248Z,5.93
2022-08-22T19:37:56.776Z,5.75
2022-08-22T19:41:37.069Z,4.80
2022-08-22T19:45:18.753Z,4.85
2022-08-22T19:48:50.333Z,6.40
2022-08-22T19:52:28.720Z,4.72
2022-08-22T19:56:35.976Z,5.43
2022-08-22T20:00:16.164Z,6.07
2022-08-22T20:03:53.523Z,7.10
2022-08-22T20:07:40.417Z,5.07
2022-08-22T20:11:20.615Z,4.55
2022-08-22T20:14:44.621Z,3.67
2022-08-22T20:18:12.214Z,5.97
2022-08-22T20:25:41.796Z,3.92
2022-08-22T20:29:08.063Z,5.80
2022-08-22T20:32:31.543Z,3.70
2022-08-22T20:36:02.433Z,4.28
2022-08-22T20:39:31.725Z,4.45
2022-08-22T20:43:03.959Z,4.38
2022-08-22T20:47:00.610Z,4.43
2022-08-22T20:50:25.848Z,4.60
2022-08-22T20:53:55.054Z,4.82
2022-08-22T20:57:22.812Z,3.42
2022-08-22T21:04:13.093Z,4.03
2022-08-22T21:07:45.297Z,5.80
2022-08-22T21:11:26.733Z,4.70
2022-08-22T21:14:48.948Z,6.60
2022-08-22T21:18:35.037Z,5.97
2022-08-22T21:22:29.258Z,5.82
2022-08-22T21:26:05.101Z,5.50
2022-08-22T21:29:32.728Z,6.18
2022-08-22T21:32:56.640Z,5.53
2022-08-22T21:36:25.071Z,4.80
2022-08-22T21:39:51.069Z,6.40
2022-08-22T21:43:30.838Z,7.45
2022-08-22T21:46:57.720Z,4.93
2022-08-22T21:50:23.581Z,6.93
2022-08-22T21:53:47.929Z,8.65
2022-08-22T21:57:33.680Z,6.88
2022-08-22T22:01:00.195Z,5.03
2022-08-22T22:04:21.923Z,4.97
2022-08-22T22:07:46.125Z,6.38
2022-08-22T22:11:14.477Z,7.00
2022-08-22T22:14:36.383Z,12.23
2022-08-22T22:18:03.229Z,6.70
2022-08-22T22:21:27.314Z,5.95
2022-08-22T22:24:48.883Z,5.78
2022-08-22T22:28:15.799Z,5.38
2022-08-22T22:31:37.471Z,5.90
2022-08-22T22:34:59.817Z,5.30
2022-08-22T22:38:24.306Z,5.45
2022-08-22T22:41:48.223Z,5.95
2022-08-22T22:45:10.832Z,4.07
2022-08-22T22:48:35.267Z,5.38
2022-08-22T22:51:58.045Z,5.22
2022-08-22T22:55:24.264Z,5.38
2022-08-22T22:59:00.820Z,4.63
2022-08-22T23:02:36.194Z,4.38
2022-08-22T23:06:00.086Z,4.70
2022-08-22T23:09:21.673Z,4.50
2022-08-22T23:12:52.136Z,4.53
2022-08-22T23:16:18.366Z,5.20
2022-08-22T23:19:40.107Z,5.03
2022-08-22T23:23:01.705Z,6.20
2022-08-22T23:26:23.854Z,5.78
2022-08-22T23:29:46.204Z,6.72
2022-08-22T23:33:10.089Z,7.88
2022-08-22T23:36:31.875Z,6.32
2022-08-22T23:39:53.585Z,7.10
2022-08-22T23:43:15.182Z,6.45
2022-08-22T23:46:39.717Z,8.38
2022-08-22T23:50:06.287Z,7.20
2022-08-22T23:53:30.575Z,8.48
2022-08-22T23:56:59.704Z,7.57
